createdAt,value
2023-05-20T00:02:33.059Z,6.95
2023-05-20T00:05:36.747Z,6.70
2023-05-20T00:08:40.938Z,6.60
2023-05-20T00:11:44.593Z,6.80
2023-05-20T00:14:49.033Z,7.50
2023-05-20T00:17:54.053Z,7.33
2023-05-20T00:20:57.869Z,7.32
2023-05-20T00:24:01.706Z,7.43
2023-05-20T00:27:06.259Z,7.30
2023-05-20T00:30:11.643Z,7.10
2023-05-20T00:33:17.376Z,7.57
2023-05-20T00:36:21.168Z,7.05
2023-05-20T00:39:25.512Z,7.27
2023-05-20T00:42:30.697Z,7.07
2023-05-20T00:45:35.298Z,7.28
2023-05-20T00:48:44.345Z,8.10
2023-05-20T00:51:49.063Z,7.57
2023-05-20T00:54:54.437Z,7.63
2023-05-20T00:57:58.804Z,7.22
2023-05-20T01:01:02.650Z,7.05
2023-05-20T01:04:09.102Z,7.03
2023-05-20T01:07:12.747Z,6.72
2023-05-20T01:10:16.988Z,7.10
2023-05-20T01:13:30.665Z,6.68
2023-05-20T01:16:40.473Z,7.15
2023-05-20T01:19:47.380Z,6.13
2023-05-20T01:22:57.066Z,6.65
2023-05-20T01:26:00.753Z,6.60
2023-05-20T01:29:05.075Z,6.82
2023-05-20T01:32:16.554Z,6.35
2023-05-20T01:35:25.214Z,6.18
2023-05-20T01:38:32.017Z,5.72
2023-05-20T01:41:38.101Z,5.80
2023-05-20T01:44:41.986Z,6.40
2023-05-20T01:47:47.282Z,6.07
2023-05-20T01:50:51.548Z,6.10
2023-05-20T01:53:56.921Z,6.10
2023-05-20T01:57:01.575Z,5.95
2023-05-20T02:00:07.520Z,5.78
2023-05-20T02:03:17.219Z,5.55
2023-05-20T02:06:21.267Z,5.40
2023-05-20T02:09:26.675Z,5.28
2023-05-20T02:12:31.034Z,5.17
2023-05-20T02:15:34.988Z,5.78
2023-05-20T02:18:39.042Z,5.30
2023-05-20T02:21:44.043Z,5.00
2023-05-20T02:24:49.531Z,5.30
2023-05-20T02:27:53.159Z,5.40
2023-05-20T02:30:57.554Z,5.37
2023-05-20T02:34:01.353Z,4.80
2023-05-20T02:37:05.961Z,5.35
2023-05-20T02:40:12.410Z,5.20
2023-05-20T02:43:16.527Z,5.03
2023-05-20T02:46:20.502Z,4.72
2023-05-20T02:49:25.413Z,5.40
2023-05-20T02:52:29.319Z,5.07
2023-05-20T02:55:37.362Z,5.13
2023-05-20T02:58:41.693Z,4.68
2023-05-20T03:01:46.342Z,5.28
2023-05-20T03:04:50.797Z,5.07
2023-05-20T03:07:54.874Z,5.28
2023-05-20T03:10:59.899Z,4.97
2023-05-20T03:14:04.974Z,4.97
2023-05-20T03:17:10.273Z,5.50
2023-05-20T03:20:16.692Z,5.22
2023-05-20T03:23:21.373Z,4.83
2023-05-20T03:26:27.480Z,4.70
2023-05-20T03:29:31.412Z,5.53
2023-05-20T03:32:35.813Z,5.80
2023-05-20T03:35:39.567Z,5.00
2023-05-20T03:38:43.619Z,5.35
2023-05-20T03:41:48.944Z,5.07
2023-05-20T03:44:53.193Z,5.13
2023-05-20T03:47:57.447Z,5.25
2023-05-20T03:51:02.206Z,5.47
2023-05-20T03:54:06.423Z,5.57
2023-05-20T03:57:12.028Z,5.30
2023-05-20T04:00:17.029Z,5.70
2023-05-20T04:03:21.124Z,5.68
2023-05-20T04:06:26.639Z,5.32
2023-05-20T04:09:32.485Z,5.20
2023-05-20T04:12:38.416Z,5.30
2023-05-20T04:15:43.691Z,5.00
2023-05-20T04:18:49.019Z,5.10
2023-05-20T04:21:53.472Z,5.35
2023-05-20T04:24:57.690Z,5.53
2023-05-20T04:28:03.339Z,6.38
2023-05-20T04:31:07.975Z,6.35
2023-05-20T04:34:13.546Z,6.32
2023-05-20T04:37:18.270Z,5.78
2023-05-20T04:40:22.968Z,6.15
2023-05-20T04:43:30.214Z,5.88
2023-05-20T04:46:36.058Z,5.80
2023-05-20T04:49:40.276Z,6.63
2023-05-20T04:52:46.036Z,6.82
2023-05-20T04:55:53.966Z,6.30
2023-05-20T04:58:59.902Z,6.38
2023-05-20T05:02:03.529Z,6.70
2023-05-20T05:05:09.006Z,7.30
2023-05-20T05:08:12.849Z,7.63
2023-05-20T05:11:23.215Z,7.60
2023-05-20T05:14:28.420Z,7.38
2023-05-20T05:17:32.990Z,7.70
2023-05-20T05:20:36.781Z,8.15
2023-05-20T05:23:42.612Z,8.07
2023-05-20T05:26:46.337Z,7.37
2023-05-20T05:29:52.475Z,8.32
2023-05-20T05:32:56.898Z,8.52
2023-05-20T05:36:02.730Z,7.65
2023-05-20T05:39:06.447Z,8.35
2023-05-20T05:42:10.835Z,8.93
2023-05-20T05:45:16.227Z,8.23
2023-05-20T05:48:20.348Z,7.63
2023-05-20T05:51:25.531Z,8.13
2023-05-20T05:54:29.913Z,8.10
2023-05-20T05:57:33.686Z,7.73
2023-05-20T06:00:40.475Z,8.10
2023-05-20T06:03:44.394Z,8.30
2023-05-20T06:06:49.548Z,8.60
2023-05-20T06:09:53.339Z,9.20
2023-05-20T06:12:57.359Z,7.90
2023-05-20T06:16:03.512Z,8.00
2023-05-20T06:19:09.697Z,8.53
2023-05-20T06:22:13.796Z,9.02
2023-05-20T06:25:18.030Z,8.13
2023-05-20T06:28:22.593Z,7.53
2023-05-20T06:31:28.243Z,8.13
2023-05-20T06:34:31.886Z,7.88
2023-05-20T06:37:36.812Z,7.88
2023-05-20T06:40:42.495Z,8.38
2023-05-20T06:43:48.216Z,7.40
2023-05-20T06:47:19.027Z,7.45
2023-05-20T06:50:25.217Z,7.73
2023-05-20T06:53:29.283Z,8.10
2023-05-20T06:56:33.827Z,7.93
2023-05-20T06:59:38.500Z,7.33
2023-05-20T07:02:45.214Z,7.60
2023-05-20T07:05:52.607Z,7.38
2023-05-20T07:08:57.482Z,7.32
2023-05-20T07:12:01.994Z,8.65
2023-05-20T07:15:07.462Z,7.53
2023-05-20T07:18:13.251Z,7.57
2023-05-20T07:21:19.021Z,7.10
2023-05-20T07:24:37.996Z,7.43
2023-05-20T07:27:42.220Z,7.82
2023-05-20T07:30:49.952Z,7.57
2023-05-20T07:34:02.408Z,7.70
2023-05-20T07:37:06.500Z,7.68
2023-05-20T07:40:11.647Z,8.32
2023-05-20T07:43:16.369Z,8.65
2023-05-20T07:46:21.788Z,8.15
2023-05-20T07:49:26.966Z,8.35
2023-05-20T07:52:35.597Z,9.77
2023-05-20T07:55:44.710Z,8.73
2023-05-20T07:58:54.833Z,7.90
2023-05-20T08:01:59.916Z,8.40
2023-05-20T08:05:06.594Z,7.65
2023-05-20T08:08:10.912Z,7.32
2023-05-20T08:11:27.019Z,8.23
2023-05-20T08:14:30.737Z,7.85
2023-05-20T08:17:35.318Z,8.65
2023-05-20T08:20:42.252Z,7.72
2023-05-20T08:23:46.213Z,10.40
2023-05-20T08:26:49.684Z,8.45
2023-05-20T08:29:55.113Z,7.82
2023-05-20T08:32:59.397Z,9.73
2023-05-20T08:36:05.405Z,11.17
2023-05-20T08:39:09.188Z,8.40
2023-05-20T08:42:13.837Z,9.60
2023-05-20T08:45:24.457Z,8.00
2023-05-20T08:48:31.471Z,9.23
2023-05-20T08:51:39.092Z,8.30
2023-05-20T08:54:47.361Z,8.70
2023-05-20T08:57:54.521Z,9.02
2023-05-20T09:00:59.646Z,8.13
2023-05-20T09:04:03.458Z,7.83
2023-05-20T09:07:08.735Z,8.63
2023-05-20T09:10:12.601Z,7.88
2023-05-20T09:13:16.487Z,8.55
2023-05-20T09:16:20.435Z,9.15
2023-05-20T09:19:25.203Z,8.93
2023-05-20T09:22:30.762Z,8.13
2023-05-20T09:25:35.866Z,8.07
2023-05-20T09:28:41.025Z,7.68
2023-05-20T09:31:45.324Z,8.25
2023-05-20T09:34:49.242Z,8.20
2023-05-20T09:37:57.059Z,7.83
2023-05-20T09:41:02.612Z,8.40
2023-05-20T09:44:07.900Z,7.47
2023-05-20T09:47:11.944Z,7.95
2023-05-20T09:50:17.266Z,8.15
2023-05-20T09:53:24.993Z,7.93
2023-05-20T09:56:30.702Z,7.80
2023-05-20T09:59:36.574Z,8.73
2023-05-20T10:02:44.148Z,8.02
2023-05-20T10:06:03.867Z,8.37
2023-05-20T10:09:32.149Z,8.25
2023-05-20T10:12:47.130Z,7.97
2023-05-20T10:16:05.283Z,7.40
2023-05-20T10:19:24.816Z,8.15
2023-05-20T10:22:31.601Z,8.17
2023-05-20T10:25:37.312Z,7.82
2023-05-20T10:28:42.807Z,8.27
2023-05-20T10:31:51.196Z,7.90
2023-05-20T10:35:01.612Z,7.82
2023-05-20T10:38:11.123Z,8.15
2023-05-20T10:41:23.797Z,9.10
2023-05-20T10:44:27.531Z,8.32
2023-05-20T10:47:32.551Z,8.25
2023-05-20T10:50:38.344Z,7.67
2023-05-20T10:53:46.640Z,7.93
2023-05-20T10:56:55.512Z,8.73
2023-05-20T11:00:01.069Z,8.55
2023-05-20T11:03:06.872Z,8.57
2023-05-20T11:06:16.037Z,8.50
2023-05-20T11:09:21.504Z,8.45
2023-05-20T11:12:28.794Z,8.25
2023-05-20T11:15:33.508Z,8.20
2023-05-20T11:18:37.372Z,8.75
2023-05-20T11:21:45.701Z,8.77
2023-05-20T11:24:49.577Z,12.25
2023-05-20T11:27:54.489Z,9.73
2023-05-20T11:30:58.728Z,8.63
2023-05-20T11:34:04.066Z,12.45
2023-05-20T11:37:09.932Z,9.13
2023-05-20T11:40:15.469Z,7.85
2023-05-20T11:43:21.653Z,7.90
2023-05-20T11:46:25.674Z,9.00
2023-05-20T11:49:30.931Z,12.63
2023-05-20T11:52:35.210Z,8.47
2023-05-20T11:55:49.696Z,9.40
2023-05-20T11:58:54.928Z,14.65
2023-05-20T12:01:58.615Z,9.85
2023-05-20T12:05:02.677Z,7.50
2023-05-20T12:08:07.505Z,7.33
2023-05-20T12:11:11.774Z,8.00
2023-05-20T12:14:19.129Z,7.70
2023-05-20T12:17:23.353Z,7.30
2023-05-20T12:20:27.905Z,7.50
2023-05-20T12:23:34.190Z,7.33
2023-05-20T12:26:38.292Z,8.00
2023-05-20T12:29:43.084Z,8.35
2023-05-20T12:32:50.005Z,8.10
2023-05-20T12:35:54.268Z,7.80
2023-05-20T12:38:58.497Z,7.80
2023-05-20T12:42:04.842Z,8.55
2023-05-20T12:45:11.894Z,8.15
2023-05-20T12:48:15.713Z,7.85
2023-05-20T12:51:20.453Z,8.23
2023-05-20T12:54:28.115Z,8.07
2023-05-20T12:57:31.991Z,8.13
2023-05-20T13:00:37.392Z,7.95
2023-05-20T13:03:41.548Z,8.32
2023-05-20T13:06:45.304Z,7.70
2023-05-20T13:09:49.326Z,7.87
2023-05-20T13:12:52.944Z,8.27
2023-05-20T13:15:58.304Z,7.70
2023-05-20T13:19:01.977Z,7.90
2023-05-20T13:22:07.304Z,7.13
2023-05-20T13:25:11.167Z,7.73
2023-05-20T13:28:18.769Z,8.30
2023-05-20T13:31:24.235Z,7.07
2023-05-20T13:34:28.043Z,8.40
2023-05-20T13:37:31.743Z,7.63
2023-05-20T13:40:35.968Z,7.23
2023-05-20T13:43:42.122Z,7.43
2023-05-20T13:46:47.284Z,7.68
2023-05-20T13:49:51.243Z,7.13
2023-05-20T13:52:55.046Z,7.68
2023-05-20T13:55:59.911Z,7.20
2023-05-20T13:59:03.695Z,6.87
2023-05-20T14:02:09.291Z,7.45
2023-05-20T14:05:14.752Z,6.97
2023-05-20T14:08:18.758Z,6.95
2023-05-20T14:11:22.662Z,6.67
2023-05-20T14:14:26.486Z,6.43
2023-05-20T14:17:32.141Z,6.68
2023-05-20T14:20:36.250Z,7.00
2023-05-20T14:23:44.417Z,6.50
2023-05-20T14:26:48.218Z,6.50
2023-05-20T14:29:51.967Z,7.40
2023-05-20T14:32:57.404Z,7.22
2023-05-20T14:36:01.414Z,6.88
2023-05-20T14:39:05.402Z,6.78
2023-05-20T14:42:09.287Z,6.57
2023-05-20T14:45:13.099Z,6.20
2023-05-20T14:48:18.568Z,6.25
2023-05-20T14:51:22.412Z,6.28
2023-05-20T14:54:28.074Z,5.93
2023-05-20T14:57:32.220Z,5.80
2023-05-20T15:00:36.562Z,5.87
2023-05-20T15:03:41.841Z,5.53
2023-05-20T15:06:45.776Z,5.03
2023-05-20T15:09:49.991Z,5.63
2023-05-20T15:12:53.781Z,5.87
2023-05-20T15:15:57.316Z,5.70
2023-05-20T15:19:02.649Z,5.28
2023-05-20T15:22:06.699Z,5.40
2023-05-20T15:25:10.766Z,5.43
2023-05-20T15:28:14.281Z,5.10
2023-05-20T15:31:18.339Z,5.07
2023-05-20T15:34:23.387Z,4.97
2023-05-20T15:37:27.177Z,5.25
2023-05-20T15:40:31.851Z,4.80
2023-05-20T15:43:36.629Z,5.10
2023-05-20T15:46:40.535Z,5.00
2023-05-20T15:49:46.149Z,5.13
2023-05-20T15:52:50.108Z,5.45
2023-05-20T15:55:53.972Z,5.65
2023-05-20T15:58:57.593Z,5.53
2023-05-20T16:02:01.511Z,5.40
2023-05-20T16:05:08.122Z,5.47
2023-05-20T16:08:11.906Z,5.43
2023-05-20T16:11:15.540Z,5.60
2023-05-20T16:14:20.630Z,5.80
2023-05-20T16:17:24.438Z,4.97
2023-05-20T16:20:30.518Z,5.30
2023-05-20T16:23:34.557Z,5.50
2023-05-20T16:26:38.675Z,5.30
2023-05-20T16:29:42.886Z,5.47
2023-05-20T16:32:47.150Z,5.80
2023-05-20T16:35:52.915Z,6.25
2023-05-20T16:38:57.001Z,6.00
2023-05-20T16:42:00.725Z,5.78
2023-05-20T16:45:05.055Z,5.93
2023-05-20T16:48:08.607Z,5.70
2023-05-20T16:51:14.088Z,5.85
2023-05-20T16:54:17.681Z,6.22
2023-05-20T16:57:21.467Z,6.10
2023-05-20T17:00:25.456Z,6.20
2023-05-20T17:03:29.443Z,6.37
2023-05-20T17:06:34.649Z,6.30
2023-05-20T17:09:38.942Z,6.18
2023-05-20T17:12:42.640Z,6.40
2023-05-20T17:15:48.716Z,6.50
2023-05-20T17:18:53.530Z,6.13
2023-05-20T17:21:58.939Z,6.80
2023-05-20T17:25:03.173Z,6.70
2023-05-20T17:28:07.049Z,6.40
2023-05-20T17:31:10.649Z,6.63
2023-05-20T17:34:14.909Z,6.20
2023-05-20T17:37:19.885Z,7.05
2023-05-20T17:40:23.863Z,6.65
2023-05-20T17:43:27.681Z,9.77
2023-05-20T17:46:31.839Z,6.93
2023-05-20T17:49:35.436Z,6.77
2023-05-20T17:52:41.291Z,7.28
2023-05-20T17:55:47.110Z,7.22
2023-05-20T17:58:51.168Z,7.60
2023-05-20T18:01:54.793Z,7.87
2023-05-20T18:04:58.836Z,7.60
2023-05-20T18:08:04.482Z,8.38
2023-05-20T18:11:08.380Z,8.02
2023-05-20T18:14:12.012Z,8.10
2023-05-20T18:17:16.101Z,7.97
2023-05-20T18:20:19.860Z,8.55
2023-05-20T18:23:25.344Z,7.82
2023-05-20T18:26:29.047Z,7.80
2023-05-20T18:29:33.340Z,8.25
2023-05-20T18:32:38.431Z,8.83
2023-05-20T18:35:42.722Z,8.73
2023-05-20T18:38:47.736Z,9.25
2023-05-20T18:41:51.939Z,9.25
2023-05-20T18:44:55.575Z,9.30
2023-05-20T18:48:00.330Z,9.13
2023-05-20T18:51:04.217Z,9.00
2023-05-20T18:54:09.969Z,9.60
2023-05-20T18:57:13.995Z,8.43
2023-05-20T19:00:19.626Z,8.88
2023-05-20T19:03:25.292Z,8.67
2023-05-20T19:06:29.538Z,9.07
2023-05-20T19:09:34.901Z,9.00
2023-05-20T19:12:38.811Z,8.98
2023-05-20T19:15:42.355Z,8.20
2023-05-20T19:18:46.338Z,7.67
2023-05-20T19:21:50.205Z,7.90
2023-05-20T19:24:56.201Z,7.78
2023-05-20T19:27:59.798Z,8.30
2023-05-20T19:31:04.215Z,7.72
2023-05-20T19:34:07.801Z,7.27
2023-05-20T19:37:12.152Z,8.15
2023-05-20T19:40:17.555Z,7.68
2023-05-20T19:43:21.986Z,7.32
2023-05-20T19:46:26.262Z,7.75
2023-05-20T19:49:30.618Z,6.97
2023-05-20T19:52:34.229Z,7.72
2023-05-20T19:55:40.002Z,6.70
2023-05-20T19:58:43.649Z,5.40
2023-05-20T20:01:47.798Z,5.78
2023-05-20T20:04:51.968Z,4.57
2023-05-20T20:07:56.286Z,4.90
2023-05-20T20:11:01.223Z,4.60
2023-05-20T20:14:05.469Z,4.57
2023-05-20T20:17:13.511Z,4.13
2023-05-20T20:20:17.676Z,4.53
2023-05-20T20:23:21.609Z,4.45
2023-05-20T20:26:27.351Z,4.68
2023-05-20T20:29:30.930Z,4.10
2023-05-20T20:32:36.408Z,4.30
2023-05-20T20:35:41.331Z,4.38
2023-05-20T20:38:47.039Z,4.13
2023-05-20T20:41:52.119Z,4.18
2023-05-20T20:44:56.478Z,4.30
2023-05-20T20:48:01.193Z,4.50
2023-05-20T20:51:05.490Z,4.97
2023-05-20T20:54:09.043Z,4.65
2023-05-20T20:57:14.726Z,4.40
2023-05-20T21:00:21.096Z,6.18
2023-05-20T21:03:26.579Z,9.85
2023-05-20T21:06:30.397Z,7.80
2023-05-20T21:09:34.415Z,6.13
2023-05-20T21:12:39.708Z,4.85
2023-05-20T21:15:46.466Z,4.78
2023-05-20T21:18:50.196Z,4.95
2023-05-20T21:21:54.323Z,4.90
2023-05-20T21:24:57.962Z,5.15
2023-05-20T21:28:04.096Z,5.40
2023-05-20T21:31:07.722Z,5.05
2023-05-20T21:34:11.931Z,5.10
2023-05-20T21:37:15.486Z,5.20
2023-05-20T21:40:19.626Z,5.60
2023-05-20T21:43:24.583Z,5.30
2023-05-20T21:46:28.710Z,17.23
2023-05-20T21:49:33.021Z,6.80
2023-05-20T21:52:37.215Z,6.28
2023-05-20T21:55:41.094Z,5.90
2023-05-20T21:58:46.326Z,5.90
2023-05-20T22:01:51.107Z,6.72
2023-05-20T22:04:55.238Z,6.38
2023-05-20T22:08:00.566Z,6.07
2023-05-20T22:11:07.417Z,6.65
2023-05-20T22:14:16.346Z,6.35
2023-05-20T22:17:20.532Z,6.75
2023-05-20T22:20:25.091Z,6.03
2023-05-20T22:23:29.897Z,6.70
2023-05-20T22:26:34.517Z,6.20
2023-05-20T22:29:40.108Z,6.30
2023-05-20T22:32:44.153Z,6.43
2023-05-20T22:35:48.244Z,6.40
2023-05-20T22:38:52.353Z,6.38
2023-05-20T22:41:56.197Z,6.65
2023-05-20T22:45:01.351Z,7.00
2023-05-20T22:48:05.750Z,6.45
2023-05-20T22:51:09.866Z,6.53
2023-05-20T22:54:13.953Z,6.60
2023-05-20T22:57:17.950Z,6.13
2023-05-20T23:00:23.469Z,5.83
2023-05-20T23:03:27.060Z,7.05
2023-05-20T23:06:31.227Z,6.50
2023-05-20T23:09:34.846Z,6.72
2023-05-20T23:12:39.219Z,6.35
2023-05-20T23:15:48.138Z,6.95
2023-05-20T23:18:52.389Z,6.63
2023-05-20T23:21:56.040Z,6.93
2023-05-20T23:24:59.949Z,6.93
2023-05-20T23:28:03.579Z,6.75
2023-05-20T23:31:09.398Z,7.00
2023-05-20T23:34:13.166Z,6.85
2023-05-20T23:37:17.310Z,6.32
2023-05-20T23:40:20.967Z,6.68
2023-05-20T23:43:24.928Z,6.70
2023-05-20T23:46:30.199Z,7.70
2023-05-20T23:49:34.453Z,7.97
2023-05-20T23:52:38.046Z,7.40
2023-05-20T23:55:45.431Z,7.25
2023-05-20T23:58:49.206Z,7.43
